Tiempo atmosférico en la estación meteorológica de Lanzarote Aeropuerto, Las Palmas (14 m.)



Fecha
DESCASC
Temp. máxima en grados centígrados (hora)
DESCASC
Temp. mínima en grados centígrados (hora)
DESCASC
Temp. media en grados centígrados
DESCASC
Racha de viento máxima en m/sg (hora)
DESCASC
Velocidad máxima media en intervalos de 10 minutos(hora)
DESCASC
Precipitaciones diarias en mm
DESCASC
Precipitaciones de 00:00 a 06:00 en mm
DESCASC
Precipitaciones de 06:00 a 12:00 en mm
DESCASC
Precipitaciones de 12:00 a 18:00 en mm
DESCASC
Precipitaciones de 18:00 a 24:00 en mm
DESCASC
19-01-2020 22.9 (14:40) 13.4 (05:50) 18.1 12.78 (17:00) 10 (17:00) 0 0 0 0 0
18-01-2020 22.1 (11:50) 12.5 (07:50) 17.3 10.83 (23:20) 7.78 (23:30) 0 0 0 0 0
17-01-2020 20.7 (15:50) 12 (03:10) 16.4 9.17 (12:20) 6.11 (12:00) 0 0 0 0 0
16-01-2020 20.5 (11:40) 10.6 (00:00) 15.6 5.83 (14:30) 4.17 (23:59) 0 0 0 0 0
15-01-2020 20.4 (12:10) 10.6 (00:00) 15.5 7.78 (12:20) 5.83 (12:20) 0 0 0 0 0
14-01-2020 20.7 (15:20) 12.2 (00:00) 16.5 10.83 (11:20) 8.61 (11:20) 0 0 0 0 0
13-01-2020 20.6 (15:30) 13.5 (00:00) 17.1 10.28 (11:00) 7.5 (11:00) 0 0 0 0 0
12-01-2020 20.9 (12:00) 14.5 (00:00) 17.7 9.72 (20:40) 6.11 (00:10) 0 0 0 0 0
11-01-2020 20.9 (12:20) 15.8 (00:00) 18.3 13.33 (12:10) 10.83 (11:00) 0 0 0 0 0
10-01-2020 21.3 (14:20) 16.1 (00:00) 18.7 15.28 (11:00) 10.83 (15:40) 0 0 0 0 0
09-01-2020 21.5 (14:40) 13.2 (00:00) 17.3 13.33 (15:00) 10.83 (15:00) 0 0 0 0 0
08-01-2020 21.6 (13:20) 13.3 (00:00) 17.5 13.33 (17:40) 7.78 (17:10) 0 0 0 0 0
07-01-2020 22.1 (13:40) 13.5 (00:00) 17.8 9.72 (15:00) 6.11 (23:30) 0 0 0 0 0
06-01-2020 21.6 (13:10) 14.7 (00:00) 18.2 13.89 (14:40) 10.83 (16:50) 0.1 0 0 0 0.1
05-01-2020 21.1 (11:20) 13.7 (00:00) 17.4 9.72 (19:50) 5.56 (14:00) 0 0 0 0 0
04-01-2020 20.9 (12:00) 12.7 (00:00) 16.8 9.72 (10:30) 6.67 (14:20) 0 0 0 0 0
03-01-2020 20.3 (11:50) 14.1 (00:00) 17.2 9.72 (12:40) 6.94 (12:40) 0 0 0 0 0
02-01-2020 19.3 (11:20) 14.1 (00:00) 16.7 11.39 (10:20) 7.78 (10:00) 0 0 0 0 0
01-01-2020 19.6 (12:10) 13.7 (00:00) 16.7 11.67 (11:00) 8.89 (11:00) 0 0 0 0 0
31-12-2019 20.7 (14:50) 13.4 (00:00) 17.1 5.83 (10:00) 4.17 (04:40) 0 0 0 0 0
30-12-2019 24.3 (12:00) 14.5 (00:00) 19.4 8.33 (05:20) 5.83 (05:10) 0 0 0 0 0
29-12-2019 22.9 (14:30) 14.4 (00:00) 18.6 7.22 (09:50) 4.72 (23:30) 0 0 0 0 0
28-12-2019 23.6 (12:20) 15 (00:00) 19.3 8.33 (12:30) 5 (12:40) 0 0 0 0 0
27-12-2019 24.4 (16:00) 15.7 (00:00) 20 9.17 (03:30) 6.67 (03:30) 0 0 0 0 0
26-12-2019 23.8 (12:40) 18.4 (00:00) 21.1 9.17 (00:40) 6.39 (00:40) 0 0 0 0 0
25-12-2019 23.5 (13:00) 17.1 (00:00) 20.3 6.11 (12:30) 4.17 (23:59) 0 0 0 0 0
24-12-2019 24 (17:20) 15 (00:00) 19.5 6.11 (00:40) 4.72 (22:10) 0 0 0 0 0
23-12-2019 22 (16:20) 13.6 (00:00) 17.8 8.89 (00:10) 6.39 (00:10) 0 0 0 0 0

Gráficas

Temp. máximas Temp. mínimas Temp. medias Precipitaciones Rachas de viento máximas Velocidades máximas media en intervalos de 10 minutos

Datos horarios

Fecha y hora oficial Temperatura (ºC) Velocidad del viento (km/h) Dirección del viento Racha (km/h) Dirección de racha Precipitación (mm) Presión (hPa) Tendencia (hPa) Humedad (%)
2020-01-21 23:00:00 12.5 4 Noroeste 9 Norte 0 1015 1.2 74
2020-01-21 22:00:00 13.7 6 Sur 11 Sudoeste 0 1014.7 1.6 69
2020-01-21 21:00:00 14.5 9 Noroeste 24 Noroeste 0 1014.4 1.7 62
2020-01-21 20:00:00 14.8 18 Noroeste 33 Noroeste 0 1013.8 1.3 62
2020-01-21 19:00:00 15.3 13 Noroeste 24 Noroeste 0 1013.1 0.7 61
2020-01-21 18:00:00 16.9 12 Noroeste 32 Noroeste 0 1012.7 0.4 51
2020-01-21 17:00:00 17.1 16 Noroeste 33 Norte 0 1012.5 0.2 50
2020-01-21 16:00:00 17.4 18 Norte 33 Noroeste 0 1012.4 -0.6 48
2020-01-21 15:00:00 17.7 13 Norte 41 Noroeste 0 1012.3 -1.3 53
2020-01-21 14:00:00 17.3 13 Norte 39 Noroeste 0 1012.3 -1.3 53
2020-01-21 13:00:00 17.5 16 Norte 32 Norte 0 1013 -0.3 51
2020-01-21 12:00:00 16.8 17 Noroeste 39 Noroeste 0 1013.6 0.9 60
2020-01-21 11:00:00 18.5 13 Norte 30 Norte 0 1013.6 1.6 50
2020-01-21 10:00:00 16.7 6 Nordeste 26 Este 0 1013.3 1.3 58
2020-01-21 09:00:00 14.5 10 Sudeste 35 Norte 0 1012.7 1 69
2020-01-21 08:00:00 13.6 23 Noroeste 42 Norte 0 1012 0.4 63
2020-01-21 07:00:00 13.7 18 Norte 30 Noroeste 0 1012 0.1 74
2020-01-21 06:00:00 13.3 13 Norte 22 Norte 0 1011.7 -0.6 72
2020-01-21 05:00:00 14.1 15 Noroeste 24 Noroeste 0 1011.6 -1.1 66
2020-01-21 04:00:00 13.6 6 Noroeste 17 Oeste 0 1011.9 -1 77
2020-01-21 03:00:00 13.2 13 Oeste 30 Oeste 0 1012.3 -1 82
2020-01-21 02:00:00 14.6 27 Norte 37 Norte 0 1012.7 -0.8 61
2020-01-21 01:00:00 14.1 10 Norte 22 Norte 0 1012.9 -0.6 52
2020-01-21 00:00:00 15.3 14 Norte 37 Norte 0 1013.3 -0.2 51
2020-01-20 23:00:00 15.6 17 Norte 28 Norte 0 1013.5 0.4 53
2020-01-20 22:00:00 15.3 17 Norte 30 Norte 0 1013.5 0.6 52
2020-01-20 21:00:00 15.2 15 Norte 46 Norte 0 1013.5 0.8 46
2020-01-20 20:00:00 16.1 26 Norte 39 Noroeste 0 1013.1 0.6 54
2020-01-20 19:00:00 16.3 29 Norte 45 Norte 0 1012.9 0.3 52
2020-01-20 18:00:00 16.9 30 Norte 48 Norte 0 1012.7 0.2 51
2020-01-20 17:00:00 17.5 29 Norte 46 Norte 0 1012.5 -0.5 49
2020-01-20 16:00:00 18.2 29 Norte 52 Norte 0 1012.6 -1.4 43
2020-01-20 15:00:00 19.5 34 Norte 55 Norte 0 1012.5 -2.2 35
2020-01-20 14:00:00 19.5 33 Norte 55 Norte 0 1013 -2.3 40
2020-01-20 13:00:00 18.8 35 Norte 48 Norte 0 1014 -1.2 47
2020-01-20 12:00:00 20.3 33 Norte 48 Norte 0 1014.7 -0.4 42
2020-01-20 11:00:00 18.5 35 Norte 46 Norte 0 1015.3 0.4 54
2020-01-20 10:00:00 18.2 26 Norte 45 Norte 0 1015.2 0.5 49
2020-01-20 09:00:00 17.5 27 Norte 45 Norte 0 1015.1 0.5 59
2020-01-20 08:00:00 17.2 28 Norte 46 Norte 0 1014.9 -0.3 57
2020-01-20 07:00:00 16.7 24 Norte 46 Norte 0 1014.7 -1.1 64
2020-01-20 06:00:00 16.5 24 Norte 48 Norte 0 1014.6 -2 65
2020-01-20 05:00:00 16.6 30 Norte 48 Norte 0 1015.2 -1.9 64
2020-01-20 04:00:00 16.5 28 Norte 50 Norte 0 1015.8 -2.3 59
2020-01-20 03:00:00 16.5 18 Norte 42 Norte 0 1016.6 -2.4 62
2020-01-20 02:00:00 16.5 25 Norte 45 Norte 0 1017.1 -2.6 62
2020-01-20 01:00:00 16.3 22 Norte 37 Norte 0 1018.1 -1.8 63
2020-01-20 00:00:00 16.9 23 Norte 39 Norte 0 1019 -0.9 68
2020-01-19 23:00:00 16.4 24 Norte 37 Norte 0 1019.7 -0.5 70
2020-01-19 22:00:00 17.5 22 Norte 42 Norte 0 1019.9 -0.2 77
2020-01-19 21:00:00 18 19 Norte 45 Norte 0 1019.9 -0.5 73
2020-01-19 20:00:00 18 27 Norte 41 Norte 0 1020.2 -0.7 80
2020-01-19 19:00:00 18 12 Norte 35 Norte 0 1020.1 -0.8 83
2020-01-19 18:00:00 18.8 28 Norte 45 Norte 0 1020.4 -0.9 80
2020-01-19 17:00:00 20.6 36 Norte 46 Norte 0 1020.9 -1.1 69
2020-01-19 16:00:00 22.2 26 Norte 41 Norte 0 1020.9 -2.1 57
2020-01-19 15:00:00 22.6 24 Nordeste 37 Nordeste 0 1021.3 -3 57
2020-01-19 14:00:00 22.3 23 Nordeste 42 Nordeste 0 1022 -2.9 57
2020-01-19 13:00:00 22.3 25 Nordeste 41 Nordeste 0 1023 -2.1 52
2020-01-19 12:00:00 22.1 24 Nordeste 35 Nordeste 0 1024.3 -0.6 48
2020-01-19 11:00:00 21 20 Nordeste 33 Nordeste 0 1024.9 0.1 57
2020-01-19 10:00:00 19.1 17 Nordeste 30 Norte 0 1025.1 0.6 71
2020-01-19 09:00:00 16.9 14 Nordeste 24 Nordeste 0 1024.9 0.8 80
2020-01-19 08:00:00 15 14 Nordeste 24 Norte 0 1024.8 0.6 88
2020-01-19 07:00:00 15 15 Norte 26 Norte 0 1024.5 -0.1 81
2020-01-19 06:00:00 14.7 14 Nordeste 22 Nordeste 0 1024.1 -0.9 69
2020-01-19 05:00:00 15.3 14 Nordeste 24 Nordeste 0 1024.2 -1.2 55
2020-01-19 04:00:00 14.6 17 Nordeste 28 Nordeste 0 1024.6 -1.3 73
2020-01-19 03:00:00 14.9 13 Nordeste 30 Norte 0 1025 -1.2 83
2020-01-19 02:00:00 15.1 19 Norte 33 Norte 0 1025.4 -0.9 87
2020-01-19 01:00:00 16 25 Norte 35 Norte 0 1025.9 -0.6 84
2020-01-19 00:00:00 16 20 Norte 39 Norte 0 1026.2 -0.4 79
2020-01-18 23:00:00 16.3 25 Norte 33 Norte 0 1026.3 -0.4 73
2020-01-18 22:00:00 16.1 19 Norte 37 Noroeste 0 1026.5 0.2 76
2020-01-18 21:00:00 15.9 13 Norte 22 Norte 0 1026.6 0.5 66
2020-01-18 20:00:00 16.8 11 Nordeste 22 Noroeste 0 1026.7 0.4 54
2020-01-18 19:00:00 18.5 14 Nordeste 22 Nordeste 0 1026.3 -0.2 60
2020-01-18 18:00:00 20.8 14 Nordeste 24 Nordeste 0 1026.1 -0.5 40
2020-01-18 17:00:00 21.2 14 Este 18 Este 0 1026.3 -0.8 45
2020-01-18 16:00:00 21.4 12 Este 18 Este 0 1026.5 -1.7 51
2020-01-18 15:00:00 21.7 13 Este 22 Este 0 1026.6 -2.6 46
2020-01-18 14:00:00 21.6 14 Este 21 Este 0 1027.1 -2.5 47
2020-01-18 13:00:00 21.7 13 Este 24 Este 0 1028.2 -1.3 44
2020-01-18 12:00:00 22 13 Este 22 Este 0 1029.2 0.2 38
2020-01-18 11:00:00 21 12 Este 22 Nordeste 0 1029.6 1.1 49
2020-01-18 10:00:00 18.5 13 Nordeste 22 Nordeste 0 1029.5 1.6 74
2020-01-18 09:00:00 15.4 12 Norte 17 Norte 0 1029 1.7 91
2020-01-18 08:00:00 12.9 9 Nordeste 13 Nordeste 0 1028.5 1.3 95
2020-01-18 07:00:00 13.4 9 Norte 17 Norte 0 1027.9 0.4 93
2020-01-18 06:00:00 13.4 8 Norte 15 Nordeste 0 1027.3 -0.2 92
2020-01-18 05:00:00 13.8 8 Norte 15 Nordeste 0 1027.2 -0.3 91
2020-01-18 04:00:00 13.4 9 Norte 15 Norte 0 1027.5 0 90
2020-01-18 03:00:00 14.5 11 Nordeste 24 Nordeste 0 1027.5 -0.4 81
2020-01-18 02:00:00 13.6 10 Norte 21 Nordeste 0 1027.5 -0.2 59
2020-01-18 01:00:00 14.8 11 Nordeste 18 Nordeste 0 1027.5 0.2 52
2020-01-18 00:00:00 14.8 11 Nordeste 21 Nordeste 0 1027.9 0.5 44
2020-01-17 23:00:00 15.1 6 Nordeste 15 Norte 0 1027.7 0.6 37
2020-01-17 22:00:00 14.6 8 Nordeste 17 Norte 0 1027.3 0.6 60
2020-01-17 21:00:00 14.8 11 Norte 18 Nordeste 0 1027.4 1.2 77
2020-01-17 20:00:00 15.6 12 Nordeste 17 Nordeste 0 1027.1 0.8 74
2020-01-17 19:00:00 17.1 14 Nordeste 24 Nordeste 0 1026.7 0.4 68
2020-01-17 18:00:00 18.7 15 Nordeste 26 Nordeste 0 1026.2 -0.4 57
2020-01-17 17:00:00 19.5 15 Este 26 Este 0 1026.3 -0.7 55
2020-01-17 16:00:00 20.2 15 Este 28 Este 0 1026.3 -1.6 50
2020-01-17 15:00:00 20.4 16 Este 28 Este 0 1026.6 -2.3 53
2020-01-17 14:00:00 20.4 17 Este 33 Este 0 1027 -2 54
2020-01-17 13:00:00 20.2 21 Este 33 Este 0 1027.9 -0.9 54
2020-01-17 12:00:00 19.9 22 Este 32 Este 0 1028.9 0.6 54
2020-01-17 11:00:00 19.5 19 Este 30 Este 0 1029 1.2 59
2020-01-17 10:00:00 18.6 19 Nordeste 26 Nordeste 0 1028.8 1.7 62
2020-01-17 09:00:00 15.8 10 Nordeste 17 Norte 0 1028.3 1.8 72
2020-01-17 08:00:00 12.7 15 Norte 21 Norte 0 1027.8 1.4 82
2020-01-17 07:00:00 13.2 14 Norte 21 Nordeste 0 1027.1 0.7 79
2020-01-17 06:00:00 12.2 14 Norte 21 Norte 0 1026.5 -0.1 79
2020-01-17 05:00:00 12.5 15 Norte 22 Norte 0 1026.4 0.1 75
2020-01-17 04:00:00 13 16 Norte 21 Norte 0 1026.4 0 66
2020-01-17 03:00:00 12.9 13 Norte 22 Norte 0 1026.6 -0.1 42
2020-01-17 02:00:00 13.8 15 Norte 22 Norte 0 1026.3 -0.4 32
2020-01-17 01:00:00 13.8 17 Norte 22 Norte 0 1026.4 -0.2 33
2020-01-17 00:00:00 13.3 15 Norte 21 Norte 0 1026.7 0.2 42
2020-01-16 23:00:00 12.6 10 Norte 15 Norte 0 1026.7 0.6 41
2020-01-16 22:00:00 12.2 10 Norte 11 Norte 0 1026.6 1.1 39
2020-01-16 21:00:00 14 10 Norte 13 Norte 0 1026.5 1.3 50
2020-01-16 20:00:00 14.5 10 Norte 13 Norte 0 1026.1 1.2 55
2020-01-16 19:00:00 16.6 8 Nordeste 15 Este 0 1025.5 0.7 55
2020-01-16 18:00:00 18.3 9 Este 13 Este 0 1025.2 0.6 50
2020-01-16 17:00:00 19.1 9 Este 15 Este 0 1024.9 -0.1 52
2020-01-16 16:00:00 19.7 9 Sudeste 15 Este 0 1024.8 -1 48
2020-01-16 15:00:00 19.9 12 Este 21 Sudeste 0 1024.6 -1.5 46
2020-01-16 14:00:00 20.1 12 Sudeste 17 Este 0 1025 -1.3 55
2020-01-16 13:00:00 20.2 10 Sudeste 15 Sudeste 0 1025.8 0 51
2020-01-16 12:00:00 20 10 Sudeste 15 Sudeste 0 1026.1 1 56
2020-01-16 11:00:00 19.8 6 Sudeste 11 Sudeste 0 1026.3 2.1 55
2020-01-16 10:00:00 18.9 6 Este 9 Este 0 1025.8 1.9 59
2020-01-16 09:00:00 15.2 8 Norte 11 Norte 0 1025.1 1.8 77
2020-01-16 08:00:00 10.9 8 Norte 11 Norte 0 1024.2 1.6 87
2020-01-16 07:00:00 11 11 Norte 13 Norte 0 1023.9 1.5 86
2020-01-16 06:00:00 12.3 11 Norte 15 Norte 0 1023.3 0.7 83
2020-01-16 05:00:00 12.5 10 Norte 15 Norte 0 1022.6 -0.5 83
2020-01-16 04:00:00 12.6 10 Norte 15 Norte 0 1022.4 -0.5 83
2020-01-16 03:00:00 13.1 9 Norte 15 Norte 0 1022.6 -0.4 83
2020-01-16 02:00:00 13 12 Norte 15 Norte 0 1023.1 0 80
2020-01-16 01:00:00 12.8 11 Norte 15 Norte 0 1022.9 -0.1 71
2020-01-16 00:00:00 13.3 13 Norte 17 Norte 0 1023 0.6 57
2020-01-15 23:00:00 13.8 10 Norte 18 Norte 0 1023.1 1.2 55
2020-01-15 22:00:00 13.7 10 Norte 13 Norte 0 1023 1.2 53
2020-01-15 21:00:00 14.2 9 Norte 15 Norte 0 1022.4 0.8 55
2020-01-15 20:00:00 15.1 12 Norte 15 Norte 0 1021.9 0.4 57
2020-01-15 19:00:00 16.3 7 Norte 11 Nordeste 0 1021.8 0.6 54
2020-01-15 18:00:00 18.1 7 Este 13 Este 0 1021.6 0.5 49
2020-01-15 17:00:00 19 8 Este 13 Este 0 1021.5 0.2 47
2020-01-15 16:00:00 19.6 8 Sudeste 15 Sudeste 0 1021.2 -1 45
2020-01-15 15:00:00 19.5 12 Sudeste 18 Sudeste 0 1021.1 -2.1 44
2020-01-15 14:00:00 19.4 15 Sudeste 26 Sudeste 0 1021.3 -2.1 42
2020-01-15 13:00:00 19.6 21 Sudeste 28 Sur 0 1022.2 -1.1 42
2020-01-15 12:00:00 20.2 15 Sudeste 22 Sudeste 0 1023.2 0.8 48
2020-01-15 11:00:00 19.9 10 Sudeste 15 Sudeste 0 1023.4 1.8 49
2020-01-15 10:00:00 18.8 4 Sudeste 8 Sudeste 0 1023.3 2.4 57
2020-01-15 09:00:00 15 8 Norte 15 Norte 0 1022.4 2.1 77
2020-01-15 08:00:00 11.5 9 Norte 15 Norte 0 1021.6 1.1 83
2020-01-15 07:00:00 11.9 12 Norte 21 Norte 0 1020.9 0.2 83
2020-01-15 06:00:00 12.9 16 Norte 21 Norte 0 1020.3 -0.5 81
2020-01-15 05:00:00 12.1 12 Norte 15 Norte 0 1020.5 -0.1 85
2020-01-15 04:00:00 11.1 9 Norte 11 Norte 0 1020.7 -0.1 82
2020-01-15 03:00:00 12.2 5 Norte 17 Norte 0 1020.8 0 75
2020-01-15 02:00:00 12.6 13 Norte 17 Norte 0 1020.6 -0.2 61
2020-01-15 01:00:00 11.4 10 Norte 13 Norte 0 1020.8 0.1 69
2020-01-15 00:00:00 12.8 10 Norte 13 Norte 0 1020.8 0.6 75
2020-01-14 23:00:00 14.1 12 Norte 15 Norte 0 1020.8 0.5 72
2020-01-14 22:00:00 13.4 10 Norte 15 Norte 0 1020.7 0.5 57
2020-01-14 21:00:00 13.2 8 Norte 13 Norte 0 1020.2 0.3 55
2020-01-14 20:00:00 15.7 6 Noroeste 17 Sur 0 1020.3 0.4 51
2020-01-14 19:00:00 17.3 14 Sur 24 Sur 0 1020.2 0.5 51
2020-01-14 18:00:00 18.5 17 Sur 28 Sur 0 1019.9 0.1 48
2020-01-14 17:00:00 19.8 20 Sur 26 Sur 0 1019.9 -0.2 46
2020-01-14 16:00:00 20.4 21 Sur 30 Sur 0 1019.7 -1.3 43
2020-01-14 15:00:00 20.5 21 Sur 30 Sur 0 1019.8 -1.7 44
2020-01-14 14:00:00 20.3 25 Sur 32 Sur 0 1020.1 -2 45
2020-01-14 13:00:00 20.2 25 Sur 35 Sur 0 1021 -0.9 46
2020-01-14 12:00:00 19.1 28 Sudeste 39 Sudeste 0 1021.5 0.2 47
2020-01-14 11:00:00 19 28 Sudeste 35 Sudeste 0 1022.1 1.3 55
2020-01-14 10:00:00 18.5 30 Sudeste 37 Sudeste 0 1021.9 1.6 51
2020-01-14 09:00:00 17.9 22 Sudeste 30 Sudeste 0 1021.3 1.6 54
2020-01-14 08:00:00 12.8 5 Este 15 Sudeste 0 1020.8 1.3 68
2020-01-14 07:00:00 16.5 11 Sudeste 24 Sudeste 0 1020.3 0.4 58
2020-01-14 06:00:00 17.2 19 Sudeste 30 Sur 0 1019.7 -0.2 55
2020-01-14 05:00:00 16.8 18 Sur 26 Sur 0 1019.5 -0.5 56
2020-01-14 04:00:00 17.1 17 Sudeste 24 Sudeste 0 1019.9 -0.6 62
2020-01-14 03:00:00 14.5 10 Nordeste 21 Norte 0 1019.9 -1.2 83
2020-01-14 02:00:00 14.5 11 Nordeste 17 Nordeste 0 1020 -1.4 85
2020-01-14 01:00:00 14.1 14 Norte 18 Norte 0 1020.5 -1.2 79
2020-01-14 00:00:00 13.6 13 Norte 18 Nordeste 0 1021.1 -0.3 73
2020-01-13 23:00:00 14 13 Norte 15 Norte 0 1021.4 0.2 70
2020-01-13 22:00:00 14.3 11 Norte 15 Norte 0 1021.7 0.6 65
2020-01-13 21:00:00 15 12 Norte 17 Norte 0 1021.4 0.5 60
2020-01-13 20:00:00 16.3 11 Nordeste 18 Nordeste 0 1021.2 0.4 62
2020-01-13 19:00:00 17 13 Nordeste 22 Nordeste 0 1021.1 0 59
2020-01-13 18:00:00 18.2 13 Nordeste 24 Nordeste 0 1020.9 -0.6 49
2020-01-13 17:00:00 19.1 14 Nordeste 24 Este 0 1020.8 -1.4 47
2020-01-13 16:00:00 20 14 Este 22 Este 0 1021.1 -2.1 45
2020-01-13 15:00:00 19.9 10 Este 15 Este 0 1021.5 -2.8 46
2020-01-13 14:00:00 20.1 7 Sudeste 17 Sudeste 0 1022.2 -2.1 42
2020-01-13 13:00:00 20 14 Sur 28 Sudeste 0 1023.2 -0.8 45
2020-01-13 12:00:00 20 18 Sur 33 Sudeste 0 1024.3 0.8 48
2020-01-13 11:00:00 19.1 27 Sudeste 37 Sudeste 0 1024.3 1.4 49
2020-01-13 10:00:00 18.6 19 Este 28 Este 0 1024 1.7 51
2020-01-13 09:00:00 17.5 16 Este 26 Este 0 1023.5 1.6 57
2020-01-13 08:00:00 14.2 13 Nordeste 21 Nordeste 0 1022.9 1.3 83
2020-01-13 07:00:00 14.3 14 Norte 21 Nordeste 0 1022.3 0.4 85
2020-01-13 06:00:00 13.9 13 Norte 17 Norte 0 1021.9 0.2 86
2020-01-13 05:00:00 14 13 Norte 17 Nordeste 0 1021.6 -0.3 85
2020-01-13 04:00:00 14.8 12 Nordeste 21 Nordeste 0 1021.9 -0.6 80
2020-01-13 03:00:00 15.1 12 Nordeste 18 Nordeste 0 1021.7 -1 82
2020-01-13 02:00:00 15.6 12 Nordeste 26 Nordeste 0 1021.9 -1.1 81
2020-01-13 01:00:00 16 18 Nordeste 30 Nordeste 0 1022.5 -1.2 83
2020-01-13 00:00:00 16.1 17 Nordeste 33 Norte 0 1022.7 -0.9 76
2020-01-12 23:00:00 16.2 21 Nordeste 30 Nordeste 0 1023 -0.5 69
2020-01-12 22:00:00 15.4 16 Norte 22 Nordeste 0 1023.7 0.8 68
2020-01-12 21:00:00 15.8 12 Nordeste 35 Norte 0 1023.6 1.8 61
2020-01-12 20:00:00 16 15 Norte 21 Norte 0 1023.5 2 58
2020-01-12 19:00:00 17.1 13 Norte 28 Nordeste 0 1022.9 1.1 54
2020-01-12 18:00:00 18.4 21 Nordeste 33 Nordeste 0 1021.8 -0.4 51
2020-01-12 17:00:00 19.6 16 Nordeste 32 Nordeste 0 1021.5 -1.4 47
2020-01-12 16:00:00 19.9 14 Este 26 Este 0 1021.8 -1.9 50
2020-01-12 15:00:00 20.4 16 Este 28 Este 0 1022.2 -2.4 47
2020-01-12 14:00:00 20.7 15 Este 26 Este 0 1022.9 -2 48
2020-01-12 13:00:00 20.4 15 Este 28 Este 0 1023.7 -0.8 44
2020-01-12 12:00:00 20.6 14 Este 28 Nordeste 0 1024.6 1 51
2020-01-12 11:00:00 19.7 18 Nordeste 32 Nordeste 0 1024.9 1.9 54
2020-01-12 10:00:00 18.6 19 Nordeste 32 Nordeste 0 1024.5 2.3 57
2020-01-12 09:00:00 16.5 15 Nordeste 22 Nordeste 0 1023.6 1.8 64
2020-01-12 08:00:00 14.6 14 Norte 18 Norte 0 1023 1 75
2020-01-12 07:00:00 16.4 12 Nordeste 18 Nordeste 0 1022.2 -0.2 70
2020-01-12 06:00:00 16.8 11 Norte 21 Nordeste 0 1021.8 -0.9 67
2020-01-12 05:00:00 16.9 12 Norte 24 Norte 0 1022 -0.7 65
2020-01-12 04:00:00 16.9 12 Norte 24 Norte 0 1022.4 -0.2 63
2020-01-12 03:00:00 17.2 15 Nordeste 30 Nordeste 0 1022.7 -0.1 62
2020-01-12 02:00:00 17.1 12 Norte 22 Norte 0 1022.7 -0.3 63
2020-01-12 01:00:00 17.1 19 Nordeste 33 Nordeste 0 1022.6 -0.1 62
2020-01-12 00:00:00 17.1 20 Nordeste 35 Nordeste 0 1022.8 0 64
2020-01-11 23:00:00 17.1 28 Norte 42 Nordeste 0 1023 0.6 61
2020-01-11 22:00:00 17.1 18 Norte 32 Norte 0 1022.7 0.6 63
2020-01-11 21:00:00 17.4 28 Norte 42 Norte 0 1022.8 1 62
2020-01-11 20:00:00 17.5 23 Norte 37 Nordeste 0 1022.4 0.6 63
2020-01-11 19:00:00 17.6 26 Norte 39 Norte 0 1022.1 0.2 66
2020-01-11 18:00:00 18.1 27 Norte 45 Norte 0 1021.8 -0.1 60
2020-01-11 17:00:00 18.6 29 Norte 45 Norte 0 1021.8 -0.5 58
2020-01-11 16:00:00 18.8 28 Norte 45 Noroeste 0 1021.9 -1 60
2020-01-11 15:00:00 19.1 28 Norte 41 Norte 0 1021.9 -1.7 57
2020-01-11 14:00:00 19.4 31 Norte 45 Norte 0 1022.3 -1.9 56
2020-01-11 13:00:00 19.4 32 Norte 48 Norte 0 1022.9 -1.5 59
2020-01-11 12:00:00 20.3 29 Norte 46 Norte 0 1023.6 -0.3 50
2020-01-11 11:00:00 19.2 39 Norte 45 Norte 0 1024.2 0.8 56
2020-01-11 10:00:00 18 23 Norte 33 Norte 0 1024.4 1.1 65
2020-01-11 09:00:00 17.6 23 Norte 30 Norte 0 1023.9 0.9 60
2020-01-11 08:00:00 16.9 25 Norte 33 Norte 0 1023.4 0.3 72
2020-01-11 07:00:00 16.3 15 Norte 35 Norte 0 1023.3 -0.1 68
2020-01-11 06:00:00 16.9 16 Norte 26 Nordeste 0 1023 -1.1 71
2020-01-11 05:00:00 15.9 17 Norte 42 Norte 0 1023.1 -1 70
2020-01-11 04:00:00 16.7 20 Norte 28 Norte 0 1023.4 -1 67
2020-01-11 03:00:00 17.1 23 Norte 33 Norte 0 1024.1 -0.7 64
2020-01-11 02:00:00 17.1 19 Norte 35 Norte 0 1024.1 -1 66
2020-01-11 01:00:00 16.9 18 Norte 33 Norte 0 1024.4 -0.5 69
2020-01-11 00:00:00 17.5 24 Norte 37 Norte 0 1024.8 -0.1 74
2020-01-10 23:00:00 17.5 31 Norte 46 Norte 0 1025.1 0.6 76
2020-01-10 22:00:00 17.3 25 Norte 39 Norte 0 1024.9 0.9 78
2020-01-10 21:00:00 17.2 18 Norte 35 Norte 0 1024.9 1.4 79
2020-01-10 20:00:00 17.6 27 Norte 42 Norte 0 1024.5 1.1 79
2020-01-10 19:00:00 17.4 13 Nordeste 33 Norte 0 1024 0.3 74
2020-01-10 18:00:00 19 22 Norte 39 Nordeste 0 1023.5 0 65
2020-01-10 17:00:00 20.1 29 Nordeste 45 Nordeste 0 1023.4 -0.3 61
2020-01-10 16:00:00 20.4 34 Norte 54 Norte 0 1023.7 -0.8 58
2020-01-10 15:00:00 20.4 30 Nordeste 50 Nordeste 0 1023.5 -1.9 58
2020-01-10 14:00:00 20.6 30 Nordeste 48 Nordeste 0 1023.7 -2.1 58
2020-01-10 13:00:00 20.1 32 Nordeste 52 Nordeste 0 1024.5 -0.9 60
2020-01-10 12:00:00 20 34 Nordeste 52 Nordeste 0 1025.4 0.5 62
2020-01-10 11:00:00 20.3 38 Nordeste 55 Nordeste 0 1025.8 1.1 61
2020-01-10 10:00:00 19.8 39 Nordeste 52 Norte 0 1025.4 1 66
2020-01-10 09:00:00 17.9 30 Norte 45 Norte 0 1024.9 0.9 79
2020-01-10 08:00:00 16.8 30 Nordeste 46 Nordeste 0 1024.7 0.5 88
2020-01-10 07:00:00 16.2 22 Norte 46 Nordeste 0 1024.4 -0.1 89
2020-01-10 06:00:00 17 28 Nordeste 46 Nordeste 0 1024 -0.9 83
2020-01-10 05:00:00 16.7 22 Norte 48 Norte 0 1024.2 -1 87
2020-01-10 04:00:00 16.8 26 Nordeste 42 Norte 0 1024.5 -0.8 87
2020-01-10 03:00:00 18 22 Norte 37 Norte 0 1024.9 -0.9 72
2020-01-10 02:00:00 17.9 22 Norte 35 Norte 0 1025.2 -0.7 73
2020-01-10 01:00:00 17.4 20 Norte 35 Norte 0 1025.3 -0.8 72
2020-01-10 00:00:00 17.8 27 Nordeste 39 Nordeste 0 1025.8 -0.2 73
2020-01-09 23:00:00 17.5 24 Norte 35 Norte 0 1025.9 0.3 71
2020-01-09 22:00:00 17.3 23 Norte 37 Norte 0 1026.1 0.8 69
2020-01-09 21:00:00 16.9 20 Norte 37 Norte 0 1026 1 67
2020-01-09 20:00:00 17 22 Norte 39 Norte 0 1025.6 1 64
2020-01-09 19:00:00 17.6 22 Norte 46 Norte 0 1025.3 0.9 62
2020-01-09 18:00:00 18.3 30 Norte 45 Norte 0 1025 0.7 60
2020-01-09 17:00:00 20.1 32 Norte 45 Norte 0 1024.6 -0.1 56
2020-01-09 16:00:00 20.8 33 Norte 48 Norte 0 1024.4 -0.8 52
2020-01-09 15:00:00 21 39 Norte 48 Norte 0 1024.3 -1.8 53
2020-01-09 14:00:00 20.1 28 Norte 45 Norte 0 1024.7 -1.5 52
2020-01-09 13:00:00 20.4 30 Norte 42 Norte 0 1025.2 -0.6 52
2020-01-09 12:00:00 20.4 35 Norte 45 Norte 0 1026.1 0.9 50
2020-01-09 11:00:00 19.3 32 Norte 42 Norte 0 1026.2 1.5 58
2020-01-09 10:00:00 18.8 27 Norte 39 Norte 0 1025.8 1.4 61
2020-01-09 09:00:00 17.6 12 Norte 24 Norte 0 1025.2 1 66
2020-01-09 08:00:00 15.6 19 Norte 28 Norte 0 1024.7 0.4 76
2020-01-09 07:00:00 14.4 13 Norte 24 Norte 0 1024.4 -0.2 71
2020-01-09 06:00:00 14.4 15 Norte 24 Norte 0 1024.2 -0.7 78
2020-01-09 05:00:00 14.4 12 Norte 22 Norte 0 1024.3 -0.8 76
2020-01-09 04:00:00 13.6 14 Norte 22 Norte 0 1024.6 -0.8 80
2020-01-09 03:00:00 13.9 12 Norte 22 Norte 0 1024.9 -0.9 78
2020-01-09 02:00:00 13.9 12 Norte 18 Norte 0 1025.1 -0.9 80
2020-01-09 01:00:00 13.9 13 Norte 18 Norte 0 1025.4 -0.4 77
2020-01-09 00:00:00 15 14 Norte 22 Norte 0 1025.8 0.1 80
2020-01-08 23:00:00 14.7 16 Norte 21 Norte 0 1026 0.5 77
2020-01-08 22:00:00 14.8 14 Norte 22 Norte 0 1025.8 1 76
2020-01-08 21:00:00 15.1 13 Norte 17 Norte 0 1025.7 1.2 74
2020-01-08 20:00:00 15.8 10 Norte 21 Norte 0 1025.5 1.3 71
2020-01-08 19:00:00 16.6 14 Norte 32 Norte 0 1024.8 0.6 65
2020-01-08 18:00:00 18.4 22 Norte 48 Norte 0 1024.5 0.5 60
2020-01-08 17:00:00 20.2 26 Norte 37 Norte 0 1024.2 0 49
2020-01-08 16:00:00 20.7 24 Norte 35 Nordeste 0 1024.2 -1 49
2020-01-08 15:00:00 20.5 19 Nordeste 37 Nordeste 0 1024 -1.9 53
2020-01-08 14:00:00 20.6 19 Nordeste -- -- -- 1024.2 -2.3 54
2020-01-08 13:00:00 20.6 23 Nordeste 37 Nordeste 0 1025.2 -1.1 54
2020-01-08 12:00:00 20.2 17 Nordeste 32 Este 0 1025.9 0.1 57
2020-01-08 11:00:00 19.3 17 Nordeste 30 Nordeste 0 1026.5 1.6 58
2020-01-08 10:00:00 17.9 12 Nordeste 26 Norte 0 1026.3 1.9 68
2020-01-08 09:00:00 16 14 Norte 18 Norte 0 1025.8 1.7 76
2020-01-08 08:00:00 13.8 14 Norte 22 Norte 0 1024.9 1 80
2020-01-08 07:00:00 14 16 Norte 28 Norte 0 1024.4 0 81
2020-01-08 06:00:00 14 21 Norte 28 Norte 0 1024.1 -0.4 78
2020-01-08 05:00:00 14.7 17 Norte 22 Norte 0 1023.9 -0.6 77
2020-01-08 04:00:00 14.1 13 Norte 22 Norte 0 1024.4 0 79
2020-01-08 03:00:00 14.9 15 Norte 24 Norte 0 1024.5 -0.2 76
2020-01-08 02:00:00 14 16 Norte 22 Norte 0 1024.5 -0.5 81
2020-01-08 01:00:00 14.2 18 Norte 26 Norte 0 1024.4 -0.7 81
2020-01-08 00:00:00 15.9 18 Norte 30 Nordeste 0 1024.7 -0.1 75
2020-01-07 23:00:00 15.9 19 Nordeste 28 Nordeste 0 1025 0.3 76
2020-01-07 22:00:00 15.2 14 Norte 22 Norte 0 1025.1 0.8 78
2020-01-07 21:00:00 15.4 14 Norte 21 Norte 0 1024.8 0.9 75
2020-01-07 20:00:00 16 16 Norte 24 Norte 0 1024.7 1 73
2020-01-07 19:00:00 17.4 14 Nordeste 26 Nordeste 0 1024.3 0.8 72
2020-01-07 18:00:00 18.5 18 Nordeste 28 Nordeste 0 1023.9 0.4 66
2020-01-07 17:00:00 19.8 19 Nordeste 30 Nordeste 0 1023.7 -0.1 62
2020-01-07 16:00:00 20.6 17 Nordeste 32 Este 0 1023.5 -0.9 58
2020-01-07 15:00:00 21 20 Este 35 Nordeste 0 1023.5 -1.6 57
2020-01-07 14:00:00 21.8 19 Este 33 Nordeste 0 1023.8 -1.9 52
2020-01-07 13:00:00 21.7 17 Nordeste 32 Nordeste 0 1024.4 -1 53
2020-01-07 12:00:00 21 17 Nordeste 30 Nordeste 0 1025.1 0.4 55
2020-01-07 11:00:00 20.2 19 Nordeste 30 Nordeste 0 1025.7 1.9 61
2020-01-07 10:00:00 18.7 18 Nordeste 26 Nordeste 0 1025.4 2.4 69
2020-01-07 09:00:00 16.2 15 Norte 21 Norte 0 1024.7 2.1 77
2020-01-07 08:00:00 14.9 16 Norte 24 Norte 0 1023.8 1.3 79
2020-01-07 07:00:00 14.8 17 Norte 24 Norte 0 1023 0.5 79
2020-01-07 06:00:00 13.6 14 Norte 21 Norte 0 1022.6 0 82
2020-01-07 05:00:00 13.8 15 Norte 21 Norte 0 1022.5 -0.3 81
2020-01-07 04:00:00 14.1 15 Norte 18 Norte 0 1022.5 -0.5 79
2020-01-07 03:00:00 14 14 Norte 18 Norte 0 1022.6 -0.4 80
2020-01-07 02:00:00 14.9 15 Nordeste 22 Nordeste 0 1022.8 -0.8 72
2020-01-07 01:00:00 14.2 13 Norte 22 Norte 0 1023 -0.2 79
2020-01-07 00:00:00 15.3 14 Norte 22 Norte 0 1023 0.3 77
2020-01-06 23:00:00 15.1 14 Nordeste 33 Nordeste 0.1 1023.6 1.1 82
2020-01-06 22:00:00 16.2 12 Norte 24 Norte 0 1023.2 1.1 71
2020-01-06 21:00:00 16.7 19 Norte 35 Norte 0 1022.7 1 66
2020-01-06 20:00:00 17.1 28 Norte 37 Norte 0 1022.5 1.1 57
2020-01-06 19:00:00 16.1 19 Norte 42 Nordeste 0 1022.1 0.9 65
2020-01-06 18:00:00 16.9 21 Norte 46 Norte 0 1021.7 0.4 67
2020-01-06 17:00:00 17.8 32 Norte 48 Norte 0 1021.4 -0.3 78
2020-01-06 16:00:00 19.2 23 Norte 45 Noroeste 0 1021.2 -1.2 60
2020-01-06 15:00:00 20.6 24 Norte 50 Oeste 0 1021.3 -2.1 53
2020-01-06 14:00:00 20.9 22 Norte 42 Noroeste 0 1021.7 -2.9 52
2020-01-06 13:00:00 21.1 16 Norte 32 Norte 0 1022.4 -2.1 48
2020-01-06 12:00:00 20.7 19 Norte 39 Norte 0 1023.4 -0.5 49
2020-01-06 11:00:00 18.9 27 Norte 39 Norte 0 1024.6 1 60
2020-01-06 10:00:00 18.8 20 Norte 28 Norte 0 1024.5 0.7 60
2020-01-06 09:00:00 17.1 15 Norte 28 Norte 0 1023.9 0.4 74